createdAt,value
2022-10-13T00:02:04.431Z,101363.75
2022-10-13T00:05:12.943Z,101369.19
2022-10-13T00:08:22.581Z,101386.00
2022-10-13T00:11:33.943Z,101382.50
2022-10-13T00:14:42.475Z,101353.38
2022-10-13T00:17:51.003Z,101385.13
2022-10-13T00:21:05.984Z,101378.03
2022-10-13T00:24:11.175Z,101386.06
2022-10-13T00:27:26.995Z,101382.47
2022-10-13T00:30:28.970Z,101385.97
2022-10-13T00:33:43.972Z,101388.22
2022-10-13T00:36:45.587Z,101380.81
2022-10-13T00:39:59.975Z,101362.16
2022-10-13T00:43:01.662Z,101379.81
2022-10-13T00:46:16.041Z,101379.87
2022-10-13T00:49:17.878Z,101376.25
2022-10-13T00:52:33.979Z,101382.56
2022-10-13T00:55:46.027Z,101359.66
2022-10-13T00:58:55.009Z,101377.16
2022-10-13T01:02:17.367Z,101371.88
2022-10-13T01:05:21.486Z,101370.53
2022-10-13T01:08:35.972Z,101372.53
2022-10-13T01:12:07.970Z,101363.03
2022-10-13T01:15:39.195Z,101375.47
2022-10-13T01:19:06.976Z,101355.34
2022-10-13T01:22:35.423Z,101362.50
2022-10-13T01:26:10.005Z,101379.28
2022-10-13T01:29:43.972Z,101376.66
2022-10-13T01:33:05.329Z,101374.09
2022-10-13T01:36:32.971Z,101352.25
2022-10-13T01:39:57.456Z,101379.53
2022-10-13T01:43:13.992Z,101383.13
2022-10-13T01:46:33.995Z,101375.91
2022-10-13T01:49:36.640Z,101371.59
2022-10-13T01:52:52.992Z,101370.69
2022-10-13T01:55:57.475Z,101361.81
2022-10-13T01:59:18.008Z,101352.13
2022-10-13T02:02:54.003Z,101361.78
2022-10-13T02:06:13.117Z,101365.31
2022-10-13T02:09:40.980Z,101351.28
2022-10-13T02:12:49.475Z,101361.03
2022-10-13T02:16:07.083Z,101354.94
2022-10-13T02:19:11.518Z,101354.06
2022-10-13T02:22:29.084Z,101336.56
2022-10-13T02:25:40.004Z,101364.72
2022-10-13T02:28:55.011Z,101348.06
2022-10-13T02:32:03.443Z,101350.66
2022-10-13T02:35:18.031Z,101368.31
2022-10-13T02:38:19.575Z,101361.22
2022-10-13T02:41:34.015Z,101348.97
2022-10-13T02:44:35.712Z,101358.69
2022-10-13T02:47:50.080Z,101356.94
2022-10-13T02:50:58.041Z,101355.19
2022-10-13T02:54:06.965Z,101362.37
2022-10-13T02:57:15.053Z,101360.59
2022-10-13T03:00:40.015Z,101362.34
2022-10-13T03:03:49.012Z,101360.62
2022-10-13T03:07:04.031Z,101366.78
2022-10-13T03:10:13.063Z,101355.31
2022-10-13T03:13:21.778Z,101363.34
2022-10-13T03:16:30.029Z,101360.69
2022-10-13T03:19:38.636Z,101359.00
2022-10-13T03:22:49.698Z,101360.81
2022-10-13T03:26:04.056Z,101354.66
2022-10-13T03:29:05.698Z,101363.56
2022-10-13T03:32:20.368Z,101324.78
2022-10-13T03:35:29.075Z,101360.91
2022-10-13T03:38:39.030Z,101353.09
2022-10-13T03:41:47.591Z,101348.69
2022-10-13T03:44:56.680Z,101354.00
2022-10-13T03:48:11.078Z,101354.78
2022-10-13T03:51:16.149Z,101356.66
2022-10-13T03:54:31.050Z,101351.34
2022-10-13T03:57:39.610Z,101353.13
2022-10-13T04:00:49.002Z,101347.81
2022-10-13T04:03:58.764Z,101351.34
2022-10-13T04:07:07.039Z,101353.13
2022-10-13T04:10:32.275Z,101338.06
2022-10-13T04:13:34.868Z,101339.00
2022-10-13T04:17:09.081Z,101351.41
2022-10-13T04:20:25.824Z,101347.94
2022-10-13T04:23:33.658Z,101337.34
2022-10-13T04:26:43.096Z,101340.00
2022-10-13T04:30:00.368Z,101344.41
2022-10-13T04:33:02.991Z,101342.66
2022-10-13T04:36:20.046Z,101322.47
2022-10-13T04:39:35.011Z,101344.47
2022-10-13T04:42:36.703Z,101326.03
2022-10-13T04:45:51.035Z,101324.31
2022-10-13T04:48:59.542Z,101347.25
2022-10-13T04:52:08.022Z,101309.41
2022-10-13T04:55:16.587Z,101345.50
2022-10-13T04:58:25.052Z,101340.19
2022-10-13T05:01:40.448Z,101346.38
2022-10-13T05:04:49.036Z,101342.00
2022-10-13T05:07:57.524Z,101348.94
2022-10-13T05:11:08.024Z,101347.25
2022-10-13T05:14:26.042Z,101354.31
2022-10-13T05:17:55.039Z,101347.22
2022-10-13T05:21:15.060Z,101345.47
2022-10-13T05:24:24.052Z,101302.34
2022-10-13T05:27:39.493Z,101348.03
2022-10-13T05:31:01.086Z,101335.63
2022-10-13T05:34:27.327Z,101352.41
2022-10-13T05:37:36.176Z,101350.53
2022-10-13T05:40:44.982Z,101339.88
2022-10-13T05:43:53.192Z,101363.66
2022-10-13T05:47:08.119Z,101357.34
2022-10-13T05:50:16.909Z,101354.59
2022-10-13T05:53:35.063Z,101353.59
2022-10-13T05:56:44.749Z,101361.41
2022-10-13T06:00:05.322Z,101360.31
2022-10-13T06:03:13.063Z,101345.19
2022-10-13T06:06:31.574Z,101349.38
2022-10-13T06:09:42.236Z,101368.25
2022-10-13T06:12:50.885Z,101373.69
2022-10-13T06:19:54.208Z,101367.25
2022-10-13T06:23:16.081Z,101377.56
2022-10-13T06:30:27.816Z,101378.06
2022-10-13T06:34:07.090Z,101376.41
2022-10-13T06:37:35.539Z,101377.34
2022-10-13T06:41:24.901Z,101382.84
2022-10-13T06:45:12.175Z,101379.50
2022-10-13T07:22:16.758Z,101365.00
2022-10-13T08:02:29.157Z,101368.03
2022-10-13T08:06:28.359Z,101363.69
2022-10-13T08:10:20.851Z,101359.97
2022-10-13T08:30:19.008Z,101313.38
2022-10-13T09:20:18.509Z,101324.38
2022-10-13T09:32:25.614Z,101321.66
2022-10-13T10:16:29.316Z,101114.09
2022-10-13T10:19:59.625Z,101282.94
2022-10-13T10:23:40.258Z,101271.13
2022-10-13T10:26:58.867Z,101269.50
2022-10-13T10:35:04.143Z,101267.50
2022-10-13T10:38:31.211Z,101262.47
2022-10-13T10:45:42.898Z,101253.28
2022-10-13T10:53:26.330Z,101256.50
2022-10-13T10:57:25.508Z,101258.59
2022-10-13T11:01:17.809Z,101236.97
2022-10-13T11:04:50.483Z,101218.44
2022-10-13T11:08:20.154Z,101221.28
2022-10-13T11:32:54.353Z,101088.66
2022-10-13T11:36:27.560Z,101184.50
2022-10-13T11:43:10.782Z,101120.09
2022-10-13T11:51:45.789Z,101171.06
2022-10-13T12:15:44.575Z,101138.72
2022-10-13T20:45:43.623Z,101037.41
2022-10-13T20:52:59.495Z,101033.16
2022-10-13T21:04:20.789Z,101028.00
2022-10-13T22:45:14.563Z,100921.16
2022-10-13T22:48:48.960Z,100997.31
2022-10-13T23:04:49.594Z,100997.81
2022-10-13T23:32:09.980Z,101000.19
2022-10-13T23:40:25.516Z,100912.53
2022-10-13T23:43:45.236Z,100911.84
